Time;durP1;ratioP1;P1;durP2;ratioP2;P2;SDS_P1;SDS_P2;PMS_P1;PMS_P2;Temp;Humidity;BMP_temperature;BMP_pressure;BME280_temperature;BME280_humidity;BME280_pressure;Samples;Min_cycle;Max_cycle;Signal;HPM_P1;HPM_P2
2022/01/10 00:00:20;;;;;;;30.23;17.02;;;;;;;6.23;87.52;95125.19;5093009;28;20020;-65
2022/01/10 00:02:48;;;;;;;30.05;16.80;;;;;;;6.27;87.73;95130.19;5092985;28;20466;-65
2022/01/10 00:05:15;;;;;;;29.60;17.15;;;;;;;6.23;86.85;95120.84;5092806;28;20046;-67
2022/01/10 00:07:40;;;;;;;28.00;17.25;;;;;;;6.28;86.98;95128.44;5092884;28;20070;-65
2022/01/10 00:10:07;;;;;;;26.65;17.42;;;;;;;6.24;86.80;95132.94;5093008;28;20028;-65
2022/01/10 00:12:32;;;;;;;28.92;17.08;;;;;;;6.29;87.11;95138.75;5092858;28;20119;-65
2022/01/10 00:14:58;;;;;;;28.42;16.73;;;;;;;6.21;87.11;95137.41;5092936;28;20099;-65
2022/01/10 00:17:24;;;;;;;28.98;17.73;;;;;;;6.23;87.31;95146.78;5092883;28;20538;-63
2022/01/10 00:19:50;;;;;;;30.67;16.63;;;;;;;6.21;87.43;95143.44;5092876;28;20071;-67
2022/01/10 00:22:16;;;;;;;27.77;16.92;;;;;;;6.23;87.52;95139.00;5092849;28;20517;-67
2022/01/10 00:24:41;;;;;;;25.98;16.75;;;;;;;6.27;87.63;95143.19;5092729;28;20504;-64
2022/01/10 00:27:07;;;;;;;25.92;15.48;;;;;;;6.18;87.68;95140.97;5092588;28;20044;-65
2022/01/10 00:29:32;;;;;;;29.17;15.23;;;;;;;6.15;87.71;95139.38;5092889;28;20027;-66
2022/01/10 00:31:58;;;;;;;21.98;14.10;;;;;;;6.21;87.63;95140.84;5092896;28;20470;-67
2022/01/10 00:34:27;;;;;;;29.35;15.23;;;;;;;6.23;87.56;95145.97;5092580;28;20488;-69
2022/01/10 00:36:54;;;;;;;24.35;14.45;;;;;;;6.26;87.88;95148.44;5092740;28;20470;-66
2022/01/10 00:39:20;;;;;;;28.67;14.88;;;;;;;6.25;87.54;95139.81;5092742;28;20458;-64
2022/01/10 00:41:46;;;;;;;25.48;15.27;;;;;;;6.30;87.41;95147.41;5092620;28;20063;-65
2022/01/10 00:44:13;;;;;;;26.73;14.82;;;;;;;6.29;87.34;95143.94;5092567;28;20031;-67
2022/01/10 00:46:39;;;;;;;21.95;13.45;;;;;;;6.32;87.19;95145.56;5092590;28;20020;-66
2022/01/10 00:49:05;;;;;;;24.92;14.07;;;;;;;6.38;87.48;95144.47;5093665;28;20016;-65
2022/01/10 00:51:30;;;;;;;20.52;12.38;;;;;;;6.37;87.06;95143.63;5096334;28;20382;-66
2022/01/10 00:53:57;;;;;;;23.75;13.75;;;;;;;6.39;87.18;95138.34;5096113;28;20093;-67
2022/01/10 00:56:24;;;;;;;22.25;14.02;;;;;;;6.34;87.17;95129.91;5096062;28;20020;-66
2022/01/10 00:58:51;;;;;;;22.55;13.23;;;;;;;6.39;87.24;95138.34;5096014;28;20020;-69
2022/01/10 01:01:18;;;;;;;22.73;13.40;;;;;;;6.39;87.50;95130.56;5096067;28;20020;-64
2022/01/10 01:03:44;;;;;;;23.17;13.75;;;;;;;6.37;87.48;95138.41;5096002;28;20047;-67
2022/01/10 01:06:12;;;;;;;25.67;12.85;;;;;;;6.34;87.47;95125.56;5095864;28;20027;-70
2022/01/10 01:08:38;;;;;;;21.20;13.25;;;;;;;6.38;87.79;95124.50;5095774;28;20024;-65
2022/01/10 01:11:34;;;;;;;25.92;12.70;;;;;;;6.39;87.91;95114.97;5095878;28;20493;-63
2022/01/10 01:13:59;;;;;;;20.50;11.15;;;;;;;6.29;87.99;95112.78;5095714;28;20038;-66
2022/01/10 01:24:18;;;;;;;18.73;10.70;;;;;;;6.12;88.91;95113.53;5095732;28;20221;-63
2022/01/10 01:26:46;;;;;;;19.38;10.73;;;;;;;6.09;89.39;95113.66;5094123;28;20602;-64
2022/01/10 01:29:15;;;;;;;20.75;11.63;;;;;;;6.06;89.39;95111.19;5095389;28;20024;-67
2022/01/10 01:31:41;;;;;;;21.55;11.38;;;;;;;6.08;89.71;95109.34;5095410;28;20389;-63
2022/01/10 01:34:08;;;;;;;24.42;12.05;;;;;;;6.06;89.62;95100.81;5095525;28;20023;-66
2022/01/10 01:36:34;;;;;;;21.70;11.82;;;;;;;6.07;89.73;95097.28;5095371;28;20028;-64
2022/01/10 01:39:05;;;;;;;18.55;11.82;;;;;;;6.09;89.92;95102.41;5095400;28;20389;-66
2022/01/10 01:43:59;;;;;;;18.02;10.50;;;;;;;6.13;89.65;95097.03;5095224;28;20051;-67
2022/01/10 01:46:25;;;;;;;24.38;14.85;;;;;;;6.10;89.74;95089.38;5095162;28;20020;-62
2022/01/10 01:48:52;;;;;;;27.70;17.65;;;;;;;6.08;90.06;95096.38;5095188;28;20470;-68
2022/01/10 01:51:19;;;;;;;22.35;13.07;;;;;;;6.03;89.98;95082.72;5095133;28;20027;-66
2022/01/10 01:53:47;;;;;;;22.50;12.93;;;;;;;6.02;90.13;95081.06;5094984;28;20505;-68
2022/01/10 01:56:14;;;;;;;24.55;13.43;;;;;;;6.00;90.30;95082.84;5094921;28;20024;-64
2022/01/10 01:58:41;;;;;;;23.92;13.73;;;;;;;5.97;90.35;95077.81;5093720;28;20032;-65
2022/01/10 02:01:08;;;;;;;25.38;13.73;;;;;;;6.00;89.79;95075.94;5094520;28;20028;-63
2022/01/10 02:03:37;;;;;;;25.85;14.55;;;;;;;5.92;90.22;95072.81;5094891;28;20021;-66
2022/01/10 02:06:03;;;;;;;23.85;13.77;;;;;;;5.93;90.35;95072.75;5094673;28;20032;-65
2022/01/10 02:08:29;;;;;;;29.23;14.82;;;;;;;5.89;90.34;95072.94;5094695;28;20024;-64
2022/01/10 02:10:55;;;;;;;19.73;12.63;;;;;;;5.99;90.56;95079.41;5094621;28;20020;-66
2022/01/10 02:13:21;;;;;;;24.88;14.25;;;;;;;5.98;90.03;95090.72;5094781;28;20024;-65
2022/01/10 02:15:57;;;;;;;23.10;13.48;;;;;;;6.05;90.13;95091.34;5094700;28;20109;-63
2022/01/10 02:18:23;;;;;;;25.05;14.55;;;;;;;6.10;89.90;95085.91;5094610;28;20074;-67
2022/01/10 02:20:49;;;;;;;22.80;13.23;;;;;;;6.14;89.75;95093.50;5094498;28;20024;-66
2022/01/10 02:23:16;;;;;;;19.65;13.32;;;;;;;6.18;88.82;95087.28;5094419;28;20023;-63
2022/01/10 02:25:44;;;;;;;23.05;14.75;;;;;;;6.15;88.62;95076.19;5094067;28;20473;-66
2022/01/10 02:28:10;;;;;;;24.33;13.95;;;;;;;6.11;88.77;95080.66;5094467;28;20024;-68
2022/01/10 02:30:35;;;;;;;21.15;13.82;;;;;;;6.05;88.74;95074.00;5094375;28;20493;-63
2022/01/10 02:33:02;;;;;;;22.35;14.43;;;;;;;6.05;89.07;95067.97;5094222;28;20016;-64
2022/01/10 02:35:43;;;;;;;26.38;14.43;;;;;;;5.94;89.04;95071.81;5094217;28;20069;-68
2022/01/10 02:38:09;;;;;;;;;;;;;;;5.92;89.37;95062.41;5094639;28;20032;-65
2022/01/10 02:40:34;;;;;;;23.38;13.90;;;;;;;5.92;89.99;95072.81;5094230;28;19912;-65
2022/01/10 02:43:05;;;;;;;24.05;15.05;;;;;;;5.93;89.83;95066.72;5094144;28;20062;-66
2022/01/10 02:45:31;;;;;;;23.65;14.70;;;;;;;5.92;89.87;95071.06;5093980;28;20024;-67
2022/01/10 02:47:56;;;;;;;29.17;15.15;;;;;;;5.93;89.69;95058.94;5094084;28;20026;-67
2022/01/10 02:50:22;;;;;;;25.58;15.98;;;;;;;5.98;89.64;95067.34;5094074;28;20543;-68
2022/01/10 02:52:48;;;;;;;29.60;15.40;;;;;;;5.96;89.90;95063.97;5093921;28;20476;-64
2022/01/10 02:55:15;;;;;;;25.80;16.00;;;;;;;6.05;89.64;95055.81;5094080;28;20024;-66
2022/01/10 02:57:41;;;;;;;27.13;15.30;;;;;;;6.01;89.30;95053.38;5093818;28;20074;-64
2022/01/10 03:00:11;;;;;;;25.90;16.65;;;;;;;5.93;89.35;95057.16;5093763;28;20425;-63
2022/01/10 03:02:37;;;;;;;17.55;11.13;;;;;;;5.93;89.53;95061.53;5093800;28;20025;-65
2022/01/10 03:05:04;;;;;;;22.70;14.20;;;;;;;5.92;89.37;95058.09;5093608;28;20069;-66
2022/01/10 03:07:30;;;;;;;31.52;17.10;;;;;;;5.93;89.79;95056.34;5093581;28;20060;-66
2022/01/10 03:09:56;;;;;;;22.60;15.00;;;;;;;5.87;89.66;95057.44;5093600;28;20058;-63
2022/01/10 03:12:23;;;;;;;27.10;15.35;;;;;;;5.94;89.29;95063.22;5092933;28;20023;-64
2022/01/10 03:14:48;;;;;;;25.73;15.40;;;;;;;5.94;89.21;95066.63;5093795;28;20051;-63
2022/01/10 03:17:14;;;;;;;32.10;16.55;;;;;;;5.97;88.92;95065.69;5093645;28;20070;-69
2022/01/10 03:19:41;;;;;;;24.90;17.08;;;;;;;5.98;88.76;95066.50;5093485;28;20020;-67
2022/01/10 03:22:08;;;;;;;32.42;16.30;;;;;;;6.03;88.70;95082.72;5093368;28;20020;-67
2022/01/10 03:24:34;;;;;;;33.75;17.05;;;;;;;5.98;88.31;95079.47;5093515;28;20039;-64
2022/01/10 03:27:00;;;;;;;27.80;15.35;;;;;;;6.10;88.12;95088.50;5093303;28;20549;-63
2022/01/10 03:29:26;;;;;;;27.23;16.60;;;;;;;6.12;87.94;95095.34;5093490;28;20028;-61
2022/01/10 03:31:52;;;;;;;23.63;16.25;;;;;;;6.16;87.57;95083.91;5093444;28;20020;-67
2022/01/10 03:34:18;;;;;;;33.65;17.17;;;;;;;6.15;87.33;95089.19;5093326;28;20081;-65
2022/01/10 03:36:45;;;;;;;27.88;16.98;;;;;;;6.11;87.16;95098.84;5093325;28;20030;-65
2022/01/10 03:39:12;;;;;;;30.42;16.63;;;;;;;6.08;87.44;95096.38;5093255;28;20024;-67
2022/01/10 03:41:38;;;;;;;26.17;16.15;;;;;;;6.04;87.17;95100.88;5093329;28;20032;-69
2022/01/10 03:44:05;;;;;;;28.55;17.52;;;;;;;6.01;87.37;95088.00;5093112;28;20024;-66
2022/01/10 03:46:34;;;;;;;27.27;15.95;;;;;;;6.01;87.59;95090.59;5093024;28;20020;-65
2022/01/10 03:49:00;;;;;;;24.88;15.65;;;;;;;6.02;87.08;95089.66;5093023;28;20073;-67
2022/01/10 03:51:27;;;;;;;22.60;14.25;;;;;;;5.98;87.29;95090.72;5093127;28;20441;-66
2022/01/10 03:53:52;;;;;;;22.05;15.45;;;;;;;6.01;87.22;95100.13;5093138;28;20089;-65
2022/01/10 03:56:19;;;;;;;21.67;14.45;;;;;;;5.97;87.07;95102.00;5093286;28;20431;-63
2022/01/10 03:58:44;;;;;;;26.67;14.43;;;;;;;5.97;86.98;95095.97;5092950;28;20077;-64
2022/01/10 04:01:12;;;;;;;27.08;16.10;;;;;;;5.96;87.39;95104.69;5092974;28;20024;-67
2022/01/10 04:03:38;;;;;;;22.75;13.55;;;;;;;5.92;87.09;95103.94;5093194;28;20024;-68
2022/01/10 04:06:04;;;;;;;21.05;13.57;;;;;;;5.92;87.18;95107.41;5092955;28;20024;-65
2022/01/10 04:08:29;;;;;;;25.60;14.20;;;;;;;5.92;87.20;95103.94;5092995;28;20047;-67
2022/01/10 04:10:55;;;;;;;24.80;14.85;;;;;;;5.92;87.27;95111.72;5092846;28;20024;-67
2022/01/10 04:13:21;;;;;;;29.52;14.35;;;;;;;5.91;87.45;95107.47;5092996;28;20039;-65
2022/01/10 04:15:46;;;;;;;24.05;14.75;;;;;;;5.90;87.46;95109.19;5092999;28;20108;-68
2022/01/10 04:18:12;;;;;;;27.65;14.95;;;;;;;5.91;87.55;95115.25;5092825;28;20025;-70
2022/01/10 04:20:38;;;;;;;21.65;13.32;;;;;;;5.91;87.27;95116.09;5092887;28;20051;-61
2022/01/10 04:23:03;;;;;;;26.25;15.68;;;;;;;5.93;87.63;95116.88;5093907;28;20016;-65
2022/01/10 04:25:29;;;;;;;24.52;14.40;;;;;;;5.92;87.57;95115.19;5096394;28;20020;-68
2022/01/10 04:27:55;;;;;;;21.73;14.25;;;;;;;5.96;87.84;95121.06;5096843;28;20085;-66
2022/01/10 04:30:21;;;;;;;25.52;14.80;;;;;;;5.92;87.34;95114.34;5096624;28;20462;-65
2022/01/10 04:32:46;;;;;;;23.20;15.07;;;;;;;5.87;88.05;95124.09;5096637;28;20028;-68
2022/01/10 04:35:12;;;;;;;28.88;17.27;;;;;;;5.85;88.10;95118.94;5096456;28;20027;-66
2022/01/10 04:37:38;;;;;;;23.00;15.70;;;;;;;5.94;88.29;95122.91;5096504;28;20028;-64
2022/01/10 04:40:05;;;;;;;24.27;15.23;;;;;;;5.87;88.50;95126.69;5096409;28;20069;-65
2022/01/10 04:42:30;;;;;;;24.60;14.82;;;;;;;5.84;88.91;95138.00;5096440;28;20028;-67
2022/01/10 04:44:56;;;;;;;18.73;12.88;;;;;;;5.86;88.77;95131.00;5096188;28;20036;-62
2022/01/10 04:47:21;;;;;;;22.95;15.27;;;;;;;5.83;89.00;95123.34;5096300;28;20024;-67
2022/01/10 04:52:31;;;;;;;22.52;14.02;;;;;;;5.84;88.94;95139.78;5096669;28;20072;-67
2022/01/10 04:54:59;;;;;;;25.50;15.18;;;;;;;5.84;88.98;95132.81;5096115;28;20036;-69
2022/01/10 04:57:25;;;;;;;25.38;14.63;;;;;;;5.84;88.77;95137.19;5096342;28;20427;-62
2022/01/10 04:59:50;;;;;;;23.25;14.23;;;;;;;5.87;89.19;95131.88;5095974;28;20024;-64
2022/01/10 05:02:16;;;;;;;24.63;14.35;;;;;;;5.92;88.92;95138.53;5096119;28;20022;-64
2022/01/10 05:04:42;;;;;;;25.60;16.50;;;;;;;5.91;89.03;95136.88;5096008;28;20397;-63
2022/01/10 05:07:08;;;;;;;25.42;15.55;;;;;;;5.92;88.70;95137.69;5095993;28;20484;-65
2022/01/10 05:09:34;;;;;;;29.92;15.90;;;;;;;5.90;88.80;95137.75;5095821;28;20020;-68
2022/01/10 05:12:01;;;;;;;28.42;15.07;;;;;;;5.89;88.91;95140.41;5095751;28;20031;-66
2022/01/10 05:14:26;;;;;;;32.30;15.10;;;;;;;5.93;89.06;95135.03;5095842;28;20016;-67
2022/01/10 05:16:52;;;;;;;24.52;14.50;;;;;;;5.99;88.54;95143.47;5095868;28;20370;-66
2022/01/10 05:19:18;;;;;;;26.15;15.82;;;;;;;6.02;88.62;95143.34;5095804;28;20021;-70
2022/01/10 05:21:44;;;;;;;27.50;15.38;;;;;;;6.00;88.33;95148.63;5095747;28;20211;-65
2022/01/10 05:24:10;;;;;;;26.98;16.13;;;;;;;5.96;88.49;95139.25;5095538;28;20055;-65
2022/01/10 05:26:36;;;;;;;31.50;16.77;;;;;;;6.04;88.54;95144.16;5095185;28;20051;-63
2022/01/10 05:29:03;;;;;;;25.65;13.82;;;;;;;5.98;87.66;95133.97;5095587;28;20020;-67
2022/01/10 05:31:29;;;;;;;23.10;13.85;;;;;;;6.04;87.55;95157.13;5095701;28;20023;-65
2022/01/10 05:33:56;;;;;;;22.48;12.73;;;;;;;6.06;87.68;95163.13;5095401;28;20077;-64
2022/01/10 05:36:22;;;;;;;23.20;12.23;;;;;;;6.04;87.60;95157.97;5094779;28;20506;-67
2022/01/10 05:38:48;;;;;;;17.88;12.25;;;;;;;5.98;88.05;95162.53;5095314;28;20020;-67
2022/01/10 05:41:14;;;;;;;21.13;12.38;;;;;;;5.93;88.89;95160.16;5095249;28;20070;-64
2022/01/10 05:43:40;;;;;;;22.98;12.77;;;;;;;5.93;89.20;95163.59;5095248;28;20028;-67
2022/01/10 05:46:09;;;;;;;24.50;12.85;;;;;;;5.87;89.74;95161.22;5095094;28;20081;-67
2022/01/10 05:48:36;;;;;;;17.42;10.00;;;;;;;5.86;89.92;95167.34;5095096;28;20115;-65
2022/01/10 05:51:02;;;;;;;24.23;13.27;;;;;;;5.81;90.32;95170.13;5095144;28;20458;-63
2022/01/10 05:53:28;;;;;;;30.73;13.40;;;;;;;5.79;90.51;95163.31;5095089;28;20078;-69
2022/01/10 05:55:54;;;;;;;24.67;13.57;;;;;;;5.87;90.40;95176.00;5095045;28;20032;-63
2022/01/10 05:58:20;;;;;;;20.40;11.10;;;;;;;5.90;90.44;95186.25;5094853;28;20386;-65
2022/01/10 06:00:46;;;;;;;24.67;12.40;;;;;;;5.84;90.66;95189.91;5094909;28;20020;-67
2022/01/10 06:03:12;;;;;;;20.88;11.10;;;;;;;5.83;90.92;95183.03;5094771;28;20017;-64
2022/01/10 06:05:38;;;;;;;20.33;11.45;;;;;;;5.85;90.78;95191.63;5094692;28;20381;-68
2022/01/10 06:08:05;;;;;;;22.95;10.90;;;;;;;5.79;90.84;95189.28;5094837;28;20027;-63
2022/01/10 06:10:32;;;;;;;21.20;11.07;;;;;;;5.74;91.18;95194.63;5094712;28;20023;-69
2022/01/10 06:12:59;;;;;;;21.05;9.90;;;;;;;5.77;91.05;95189.31;5094749;28;20016;-63
2022/01/10 06:15:25;;;;;;;21.77;11.98;;;;;;;5.79;91.36;95184.06;5094627;28;20078;-67
2022/01/10 06:17:51;;;;;;;22.30;12.52;;;;;;;5.74;91.48;95206.75;5094651;28;20501;-67
2022/01/10 06:20:17;;;;;;;21.67;11.20;;;;;;;5.76;91.28;95190.25;5094527;28;20048;-68
2022/01/10 06:22:43;;;;;;;19.52;11.60;;;;;;;5.78;91.17;95205.75;5094414;28;20466;-66
2022/01/10 06:25:12;;;;;;;17.08;11.00;;;;;;;5.86;90.60;95198.50;5094255;28;20031;-63
2022/01/10 06:27:38;;;;;;;16.15;10.95;;;;;;;5.87;90.32;95204.53;5094165;28;20469;-66
2022/01/10 06:30:05;;;;;;;20.30;11.73;;;;;;;5.91;90.45;95206.09;5094446;28;20107;-67
2022/01/10 06:32:31;;;;;;;18.58;11.20;;;;;;;5.97;90.98;95205.84;5094246;28;20492;-65
2022/01/10 06:34:57;;;;;;;13.93;8.63;;;;;;;5.85;90.76;95199.41;5094226;28;20028;-67
2022/01/10 06:37:23;;;;;;;17.73;9.15;;;;;;;5.85;91.17;95202.00;5094134;28;20039;-64
2022/01/10 06:39:49;;;;;;;19.52;10.45;;;;;;;5.92;91.48;95212.97;5094155;28;20462;-68
2022/01/10 06:42:15;;;;;;;15.50;9.32;;;;;;;5.91;91.26;95203.50;5094178;28;20028;-65
2022/01/10 06:44:41;;;;;;;15.13;8.10;;;;;;;5.87;91.51;95212.31;5094115;28;20028;-67
2022/01/10 06:47:07;;;;;;;21.05;11.48;;;;;;;5.84;91.89;95215.84;5093923;28;20020;-66
2022/01/10 06:49:33;;;;;;;19.98;9.70;;;;;;;5.76;92.02;95226.56;5094012;28;20115;-66
2022/01/10 06:51:58;;;;;;;19.10;10.25;;;;;;;5.74;92.38;95204.16;5093933;28;20099;-67
2022/01/10 06:54:27;;;;;;;24.30;12.18;;;;;;;5.84;92.33;95207.25;5093882;28;20495;-67
2022/01/10 06:56:53;;;;;;;19.17;10.38;;;;;;;5.88;91.65;95209.66;5093958;28;20016;-63
2022/01/10 06:59:19;;;;;;;16.23;9.20;;;;;;;5.86;91.47;95215.81;5093823;28;20042;-68
2022/01/10 07:01:45;;;;;;;17.02;10.02;;;;;;;5.80;91.89;95215.16;5093772;28;20479;-67
2022/01/10 07:04:12;;;;;;;17.83;9.98;;;;;;;5.80;91.77;95206.53;5093769;28;20043;-65
2022/01/10 07:18:42;;;;;;;15.38;9.65;;;;;;;6.44;88.23;95215.16;5131912;27;20375;-63
2022/01/10 07:21:08;;;;;;;14.07;6.78;;;;;;;6.25;88.93;95217.72;5131401;27;20035;-62
2022/01/10 07:23:33;;;;;;;12.88;7.95;;;;;;;6.16;89.48;95231.06;5131343;27;20027;-63
2022/01/10 07:25:59;;;;;;;14.18;8.15;;;;;;;6.06;89.67;95223.66;5131128;27;20483;-63
2022/01/10 07:28:24;;;;;;;11.32;7.25;;;;;;;6.05;90.37;95219.38;5130112;28;20103;-63
2022/01/10 07:30:50;;;;;;;14.68;8.05;;;;;;;6.00;90.51;95230.81;5129812;28;20453;-63
2022/01/10 07:33:16;;;;;;;18.88;8.88;;;;;;;6.01;90.94;95228.16;5131217;27;20118;-63
2022/01/10 07:35:42;;;;;;;13.57;7.85;;;;;;;5.98;90.69;95227.44;5131210;27;20015;-62
2022/01/10 07:38:08;;;;;;;12.38;8.00;;;;;;;5.97;90.93;95238.72;5131032;27;20365;-62
2022/01/10 07:40:33;;;;;;;13.18;7.47;;;;;;;5.95;90.40;95238.78;5130918;27;20016;-63
2022/01/10 07:42:59;;;;;;;11.13;7.82;;;;;;;5.94;90.56;95224.13;5130833;27;20411;-62
2022/01/10 07:45:25;;;;;;;14.63;8.27;;;;;;;6.00;90.56;95225.63;5130904;27;20012;-63
2022/01/10 07:47:51;;;;;;;13.18;7.95;;;;;;;6.03;90.39;95241.09;5130757;27;20023;-63
2022/01/10 07:50:17;;;;;;;17.63;9.40;;;;;;;6.03;90.13;95241.94;5131034;27;20023;-63
2022/01/10 07:52:43;;;;;;;16.17;8.95;;;;;;;5.96;90.36;95244.84;5130772;27;20027;-62
2022/01/10 07:55:09;;;;;;;15.93;8.75;;;;;;;5.99;89.82;95236.94;5130742;28;20023;-63
2022/01/10 07:57:35;;;;;;;14.88;9.23;;;;;;;6.01;89.75;95245.47;5130748;27;20019;-63
2022/01/10 08:00:00;;;;;;;15.48;9.63;;;;;;;6.07;89.88;95245.28;5130535;27;20384;-63
2022/01/10 08:02:26;;;;;;;18.75;9.25;;;;;;;6.08;89.76;95244.34;5130559;28;20030;-63
2022/01/10 08:04:52;;;;;;;14.57;8.52;;;;;;;6.07;90.12;95266.03;5130533;27;20031;-62
2022/01/10 08:07:18;;;;;;;13.65;9.07;;;;;;;6.07;89.43;95255.66;5130480;27;20080;-62
2022/01/10 08:09:44;;;;;;;15.93;10.45;;;;;;;6.01;89.66;95248.94;5130462;27;20066;-61
2022/01/10 08:12:09;;;;;;;14.38;9.13;;;;;;;6.07;89.54;95259.13;5130480;27;20101;-63
2022/01/10 08:14:36;;;;;;;13.60;8.85;;;;;;;6.10;88.78;95259.88;5130540;27;20176;-63
2022/01/10 08:17:02;;;;;;;15.43;9.18;;;;;;;6.13;88.34;95255.41;5129984;27;20496;-63
2022/01/10 08:19:30;;;;;;;15.55;8.95;;;;;;;6.17;88.78;95266.53;5117555;27;20091;-61
2022/01/10 08:21:57;;;;;;;15.50;9.93;;;;;;;6.15;88.21;95264.00;5116556;28;20023;-62
2022/01/10 08:24:24;;;;;;;13.82;9.48;;;;;;;6.11;88.54;95264.19;5116548;28;20098;-61
2022/01/10 08:26:50;;;;;;;14.23;9.93;;;;;;;6.12;88.06;95263.25;5116401;28;20027;-63
2022/01/10 08:29:16;;;;;;;17.42;11.07;;;;;;;6.16;88.42;95262.22;5116338;27;20047;-62
2022/01/10 08:31:41;;;;;;;13.55;10.13;;;;;;;6.14;88.27;95256.28;5116316;28;20058;-62
2022/01/10 08:34:07;;;;;;;15.55;9.85;;;;;;;6.16;88.19;95252.69;5116241;28;20098;-63
2022/01/10 08:36:34;;;;;;;14.63;10.20;;;;;;;6.20;88.12;95261.19;5116122;28;20027;-63
2022/01/10 08:39:00;;;;;;;15.23;9.27;;;;;;;6.21;87.55;95267.22;5116229;28;20020;-62
2022/01/10 08:41:26;;;;;;;13.02;9.02;;;;;;;6.18;87.92;95265.63;5116152;28;20469;-63
2022/01/10 08:43:52;;;;;;;12.13;8.70;;;;;;;6.24;87.75;95261.91;5116169;28;20073;-63
2022/01/10 08:46:18;;;;;;;14.30;9.57;;;;;;;6.26;88.27;95260.13;5116001;28;20030;-63
2022/01/10 08:48:44;;;;;;;12.15;8.90;;;;;;;6.27;87.59;95254.84;5116150;28;20020;-62
2022/01/10 08:51:10;;;;;;;13.40;8.70;;;;;;;6.30;88.25;95264.28;5115878;28;20093;-63
2022/01/10 08:53:36;;;;;;;13.57;9.65;;;;;;;6.35;88.29;95251.91;5115949;28;20027;-63
2022/01/10 08:56:03;;;;;;;12.63;8.43;;;;;;;6.39;89.34;95261.28;5115748;28;20019;-64
2022/01/10 08:58:32;;;;;;;12.10;8.65;;;;;;;6.42;87.79;95257.72;5115893;28;20445;-63
2022/01/10 09:01:03;;;;;;;12.77;8.50;;;;;;;6.48;87.06;95257.47;5115787;28;20384;-61
2022/01/10 09:03:28;;;;;;;;;;;;;;;6.45;87.40;95257.59;5116312;28;20031;-63
2022/01/10 09:05:55;;;;;;;13.55;8.82;;;;;;;6.44;87.71;95256.72;5115648;28;19965;-63
2022/01/10 09:08:26;;;;;;;12.63;8.18;;;;;;;6.53;88.09;95250.31;5115591;28;20077;-62
2022/01/10 09:10:53;;;;;;;11.82;8.70;;;;;;;6.58;87.63;95252.72;5115523;28;20464;-62
2022/01/10 09:13:20;;;;;;;10.60;7.80;;;;;;;6.59;87.68;95250.97;5115475;28;20027;-63
2022/01/10 09:15:46;;;;;;;10.70;7.50;;;;;;;6.62;87.18;95251.66;5115542;28;20107;-62
2022/01/10 09:18:11;;;;;;;9.32;7.50;;;;;;;6.63;87.23;95252.50;5115117;28;20076;-63
2022/01/10 09:20:37;;;;;;;11.27;6.78;;;;;;;6.64;86.78;95254.19;5115244;28;20019;-63
2022/01/10 09:23:03;;;;;;;9.88;7.68;;;;;;;6.62;87.11;95240.44;5115240;28;20483;-63
2022/01/10 09:25:28;;;;;;;12.07;7.43;;;;;;;6.69;87.23;95245.28;5115394;28;20099;-63
2022/01/10 09:27:54;;;;;;;10.98;7.10;;;;;;;6.64;86.89;95247.25;5115382;28;20023;-62
2022/01/10 09:30:21;;;;;;;9.20;6.45;;;;;;;6.60;86.50;95242.25;5114169;28;20038;-62
2022/01/10 09:32:47;;;;;;;7.75;6.43;;;;;;;6.62;86.85;95245.63;5115121;28;20039;-63
2022/01/10 09:35:13;;;;;;;9.02;6.82;;;;;;;6.57;87.10;95241.47;5115190;27;20024;-61
2022/01/10 09:37:38;;;;;;;9.23;7.03;;;;;;;6.58;87.45;95239.72;5115086;28;20053;-63
2022/01/10 09:40:05;;;;;;;9.77;7.68;;;;;;;6.57;87.72;95249.25;5115036;28;20107;-62
2022/01/10 09:42:33;;;;;;;10.98;8.02;;;;;;;6.61;87.62;95241.34;5114911;28;20023;-62
2022/01/10 09:44:59;;;;;;;11.75;8.13;;;;;;;6.53;86.79;95239.09;5114945;28;20024;-63
2022/01/10 09:47:24;;;;;;;9.27;6.93;;;;;;;6.52;86.13;95227.84;5114741;28;20027;-62
2022/01/10 09:49:50;;;;;;;10.52;7.75;;;;;;;6.55;87.21;95235.50;5113693;28;20112;-62
2022/01/10 09:52:16;;;;;;;12.43;8.48;;;;;;;6.60;86.72;95235.31;5114738;28;20121;-63
2022/01/10 09:54:42;;;;;;;12.50;8.48;;;;;;;6.62;86.66;95224.84;5114662;28;20020;-63
2022/01/10 09:57:07;;;;;;;11.38;8.38;;;;;;;6.68;87.11;95237.56;5114590;28;20095;-62
2022/01/10 09:59:33;;;;;;;9.98;7.35;;;;;;;6.68;87.10;95228.00;5114639;28;20106;-62
2022/01/10 10:01:59;;;;;;;17.40;8.15;;;;;;;6.70;86.25;95226.19;5114425;28;20023;-63
2022/01/10 10:04:24;;;;;;;11.07;7.78;;;;;;;6.73;86.49;95227.81;5114459;28;20019;-63
2022/01/10 10:06:51;;;;;;;10.10;7.75;;;;;;;6.69;86.09;95229.69;5114408;28;20028;-63
2022/01/10 10:09:17;;;;;;;10.65;8.38;;;;;;;6.79;86.85;95235.34;5114395;28;20366;-62
2022/01/10 10:11:47;;;;;;;12.45;8.30;;;;;;;6.85;86.98;95233.38;5114183;28;20030;-61
2022/01/10 10:14:17;;;;;;;12.48;8.70;;;;;;;6.85;86.80;95229.03;5114234;28;20028;-62
2022/01/10 10:16:49;;;;;;;11.48;7.90;;;;;;;6.90;86.58;95229.69;5114046;28;20046;-62
2022/01/10 10:19:27;;;;;;;10.27;7.72;;;;;;;6.95;86.67;95227.72;5114260;28;20027;-63
2022/01/10 10:21:55;;;;;;;11.73;8.40;;;;;;;6.98;86.52;95224.13;5114276;28;20035;-62
2022/01/10 10:24:23;;;;;;;14.38;8.63;;;;;;;6.97;86.54;95222.44;5113813;28;20028;-62
2022/01/10 10:26:50;;;;;;;11.13;7.50;;;;;;;7.05;86.95;95215.13;5114096;28;20024;-62
2022/01/10 10:29:17;;;;;;;11.70;8.85;;;;;;;7.07;86.74;95218.50;5114103;28;20107;-62
2022/01/10 10:31:56;;;;;;;16.35;11.27;;;;;;;7.14;87.19;95221.69;5114035;28;20115;-62
2022/01/10 10:34:28;;;;;;;13.18;9.50;;;;;;;7.07;86.70;95212.47;5113928;28;20103;-62
2022/01/10 10:37:06;;;;;;;18.63;13.10;;;;;;;7.10;87.15;95214.09;5113859;28;20023;-62
2022/01/10 10:39:34;;;;;;;16.35;11.80;;;;;;;7.07;87.29;95215.91;5114008;28;20046;-62
2022/01/10 10:42:03;;;;;;;15.77;10.23;;;;;;;7.06;87.18;95222.03;5113691;28;20514;-62
2022/01/10 10:44:29;;;;;;;16.30;11.95;;;;;;;7.10;87.65;95217.53;5113801;28;20047;-62
2022/01/10 10:46:56;;;;;;;28.90;17.17;;;;;;;7.10;87.20;95214.09;5113755;28;20098;-62
2022/01/10 10:49:31;;;;;;;38.58;23.40;;;;;;;7.10;87.00;95222.72;5113694;28;20440;-63
2022/01/10 10:51:59;;;;;;;12.70;8.30;;;;;;;7.12;87.51;95210.50;5113865;28;20099;-63
2022/01/10 10:54:25;;;;;;;31.00;20.70;;;;;;;7.15;87.79;95215.56;5113690;28;20020;-63
2022/01/10 10:56:50;;;;;;;13.43;9.23;;;;;;;7.17;87.04;95228.50;5113577;28;20045;-63
2022/01/10 10:59:16;;;;;;;13.63;9.18;;;;;;;7.16;86.96;95227.66;5113699;28;20042;-63
2022/01/10 11:01:42;;;;;;;12.13;8.80;;;;;;;7.18;87.43;95224.97;5113671;28;20473;-63
2022/01/10 11:04:10;;;;;;;13.60;8.68;;;;;;;7.18;87.45;95227.59;5113788;28;20031;-62
2022/01/10 11:06:40;;;;;;;20.42;13.75;;;;;;;7.18;87.93;95220.63;5113304;28;20634;-63
2022/01/10 11:09:13;;;;;;;32.58;20.67;;;;;;;7.18;87.24;95223.25;5112252;28;20027;-63
2022/01/10 11:11:41;;;;;;;16.58;9.60;;;;;;;7.15;87.65;95236.38;5113569;28;20468;-63
2022/01/10 11:14:10;;;;;;;12.00;9.93;;;;;;;7.17;87.37;95229.34;5113454;28;20022;-62
2022/01/10 11:16:39;;;;;;;11.32;8.90;;;;;;;7.24;86.87;95227.31;5113179;28;20116;-63
2022/01/10 11:19:12;;;;;;;17.10;11.00;;;;;;;7.24;87.64;95223.84;5113396;28;20023;-63
2022/01/10 11:21:40;;;;;;;11.90;8.40;;;;;;;7.18;86.98;95233.66;5113441;28;20012;-63
2022/01/10 11:24:06;;;;;;;16.48;13.75;;;;;;;7.26;87.22;95227.25;5113575;28;20094;-62
2022/01/10 11:26:43;;;;;;;12.23;8.65;;;;;;;7.34;87.45;95232.91;5113272;28;20066;-63
2022/01/10 11:29:09;;;;;;;11.07;7.43;;;;;;;7.35;86.46;95231.19;5113249;28;20613;-62
2022/01/10 11:31:39;;;;;;;7.88;6.25;;;;;;;7.41;86.44;95234.31;5113272;28;20028;-63
2022/01/10 11:34:05;;;;;;;8.77;7.10;;;;;;;7.41;86.68;95228.28;5113330;28;20039;-63
2022/01/10 11:36:31;;;;;;;7.55;5.90;;;;;;;7.45;86.51;95235.03;5113353;28;20038;-62
2022/01/10 11:39:07;;;;;;;7.68;5.88;;;;;;;7.45;86.29;95238.50;5113256;28;20023;-62
2022/01/10 11:41:33;;;;;;;6.88;5.60;;;;;;;7.44;86.64;95233.38;5113430;28;20111;-62
2022/01/10 11:44:03;;;;;;;9.55;5.53;;;;;;;7.43;85.35;95242.06;5113359;28;20035;-63
2022/01/10 11:46:49;;;;;;;4.70;3.90;;;;;;;7.44;85.72;95246.38;5113197;28;20058;-63
2022/01/10 11:49:15;;;;;;;7.15;5.60;;;;;;;7.43;85.93;95242.91;5113190;28;20106;-63
2022/01/10 11:51:51;;;;;;;7.35;5.05;;;;;;;7.41;85.04;95249.09;5113101;28;20066;-64